Time;durP1;ratioP1;P1;durP2;ratioP2;P2;SDS_P1;SDS_P2;PMS_P1;PMS_P2;Temp;Humidity;BMP_temperature;BMP_pressure;BME280_temperature;BME280_humidity;BME280_pressure;Samples;Min_cycle;Max_cycle;Signal;HPM_P1;HPM_P2
2023/01/02 09:09:32;;;;;;;;;;;;;;;7.76;100.00;99803.16;5314923;22;19956;-82
2023/01/02 09:11:59;;;;;;;;;;;;;;;7.80;100.00;99804.78;5067053;28;20383;-84
2023/01/02 09:14:25;;;;;;;;;;;;;;;7.84;100.00;99816.13;5047065;28;20374;-83
2023/01/02 09:16:50;;;;;;;;;;;;;;;7.84;100.00;99811.69;5063549;28;19925;-82
2023/01/02 09:19:16;;;;;;;;;;;;;;;7.89;100.00;99817.69;5064837;28;19924;-82
2023/01/02 09:21:41;;;;;;;;;;;;;;;7.89;100.00;99817.69;5066825;28;19998;-82
2023/01/02 09:24:07;;;;;;;;;;;;;;;7.92;100.00;99828.13;5064385;28;20405;-82
2023/01/02 09:26:32;;;;;;;;;;;;;;;7.94;100.00;99833.38;5062580;28;19968;-83
2023/01/02 09:28:58;;;;;;;;;;;;;;;7.97;100.00;99833.28;5068439;28;19917;-82
2023/01/02 09:31:23;;;;;;;;;;;;;;;7.97;100.00;99836.75;5058810;28;19921;-82
2023/01/02 09:33:48;;;;;;;;;;;;;;;8.02;100.00;99835.78;5066345;28;20440;-87
2023/01/02 09:36:15;;;;;;;;;;;;;;;8.05;100.00;99846.22;5067197;28;19924;-83
2023/01/02 09:38:41;;;;;;;;;;;;;;;8.08;100.00;99857.53;5052455;28;19916;-84
2023/01/02 09:41:33;;;;;;;;;;;;;;;8.12;100.00;99863.59;5053866;28;19917;-83
2023/01/02 09:43:58;;;;;;;;;;;;;;;8.15;100.00;99869.66;5024510;28;19927;-82
2023/01/02 09:46:34;;;;;;;;;;;;;;;8.13;100.00;99863.53;5063762;28;19925;-83
2023/01/02 09:49:00;;;;;;;;;;;;;;;8.18;100.00;99871.31;5062982;28;20007;-84
2023/01/02 09:51:26;;;;;;;;;;;;;;;8.22;100.00;99880.88;5073469;28;20371;-84
2023/01/02 09:53:51;;;;;;;;;;;;;;;8.25;100.00;99883.41;5072270;28;19920;-84
2023/01/02 09:56:22;;;;;;;;;;;;;;;8.29;100.00;99870.97;5059389;28;19916;-85
2023/01/02 09:58:47;;;;;;;;;;;;;;;8.28;100.00;99875.41;5035324;28;20292;-84
2023/01/02 10:01:20;;;;;;;;;;;;;;;8.33;100.00;99867.34;5035406;28;19917;-84
2023/01/02 10:03:54;;;;;;;;;;;;;;;8.32;100.00;99866.44;5053396;28;19951;-86
2023/01/02 10:06:24;;;;;;;;;;;;;;;8.35;100.00;99876.06;5035419;28;19916;-84
2023/01/02 10:09:10;;;;;;;;;;;;;;;8.35;100.00;99882.19;5051718;28;19921;-84
2023/01/02 10:11:56;;;;;;;;;;;;;;;8.37;100.00;99882.16;5053426;28;19962;-87
2023/01/02 10:14:33;;;;;;;;;;;;;;;8.41;100.00;99891.72;5024787;28;19964;-84
2023/01/02 10:17:00;;;;;;;;;;;;;;;8.42;100.00;99893.41;5053527;28;20358;-83
2023/01/02 10:19:46;;;;;;;;;;;;;;;8.42;100.00;99888.13;5053082;28;20312;-84
2023/01/02 10:22:14;;;;;;;;;;;;;;;8.49;100.00;99889.72;5039007;28;19928;-84
2023/01/02 10:25:02;;;;;;;;;;;;;;;8.45;100.00;99887.22;5033712;28;20287;-84
2023/01/02 10:27:48;;;;;;;;;;;;;;;8.48;100.00;99881.84;5053116;28;20402;-88
2023/01/02 10:30:16;;;;;;;;;;;;;;;8.51;100.00;99887.03;5053032;28;19917;-83
2023/01/02 10:32:45;;;;;;;;;;;;;;;8.52;100.00;99875.53;5052946;28;19928;-84
2023/01/02 10:35:17;;;;;;;;;;;;;;;8.52;100.00;99879.06;5053015;28;19917;-84
2023/01/02 10:37:42;;;;;;;;;;;;;;;8.56;100.00;99873.69;5051541;28;19917;-83
2023/01/02 10:40:08;;;;;;;;;;;;;;;8.56;100.00;99876.31;5035123;28;19924;-85
2023/01/02 10:42:33;;;;;;;;;;;;;;;8.52;100.00;99873.78;5052787;28;19917;-89
2023/01/02 10:44:59;;;;;;;;;;;;;;;8.59;100.00;99876.22;5035064;28;20029;-86
2023/01/02 10:47:35;;;;;;;;;;;;;;;8.56;100.00;99876.31;5052932;28;20383;-84
2023/01/02 10:50:02;;;;;;;;;;;;;;;8.63;100.00;99877.81;5052936;28;19932;-85
2023/01/02 10:52:38;;;;;;;;;;;;;;;8.61;100.00;99877.88;5053018;28;19943;-84
2023/01/02 10:55:03;;;;;;;;;;;;;;;8.63;100.00;99869.91;5052720;28;19917;-84
2023/01/02 10:57:38;;;;;;;;;;;;;;;8.65;100.00;99876.00;5052985;28;19924;-85
2023/01/02 11:00:04;;;;;;;;;;;;;;;8.62;100.00;99871.69;5053778;28;19917;-85
2023/01/02 11:02:35;;;;;;;;;;;;;;;8.61;100.00;99875.22;5054414;28;20290;-84
2023/01/02 11:05:01;;;;;;;;;;;;;;;8.64;100.00;99876.91;5052682;28;19971;-84
2023/01/02 11:07:27;;;;;;;;;;;;;;;8.69;100.00;99869.69;5052951;28;19923;-84
2023/01/02 11:09:54;;;;;;;;;;;;;;;8.66;100.00;99870.69;5051187;28;19968;-86
2023/01/02 11:12:19;;;;;;;;;;;;;;;8.69;100.00;99865.25;5052671;28;19917;-85
2023/01/02 11:14:44;;;;;;;;;;;;;;;8.68;100.00;99867.97;5055967;28;19917;-84
2023/01/02 11:17:16;;;;;;;;;;;;;;;8.70;100.00;99868.78;5056445;28;19916;-84
2023/01/02 11:19:49;;;;;;;;;;;;;;;8.68;100.00;99865.31;5056457;28;20003;-89
2023/01/02 11:22:16;;;;;;;;;;;;;;;8.74;100.00;99867.75;5056268;28;19921;-85
2023/01/02 11:24:47;;;;;;;;;;;;;;;8.74;100.00;99870.41;5054804;28;19928;-83
2023/01/02 11:27:13;;;;;;;;;;;;;;;8.72;100.00;99870.44;5056338;28;19917;-84
2023/01/02 11:29:38;;;;;;;;;;;;;;;8.72;100.00;99859.88;5056150;28;19917;-84
2023/01/02 11:32:03;;;;;;;;;;;;;;;8.79;100.00;99865.84;5056149;28;20311;-87
2023/01/02 11:34:36;;;;;;;;;;;;;;;8.79;100.00;99862.31;5055829;28;19917;-84
2023/01/02 11:37:03;;;;;;;;;;;;;;;8.77;100.00;99872.94;5055947;28;19917;-83
2023/01/02 11:39:29;;;;;;;;;;;;;;;8.79;100.00;99860.56;5054633;28;19916;-83
2023/01/02 11:45:09;;;;;;;;;;;;;;;8.81;100.00;99871.06;5018504;28;20364;-83
2023/01/02 11:47:34;;;;;;;;;;;;;;;8.82;100.00;99871.03;5055762;28;20003;-83
2023/01/02 11:49:59;;;;;;;;;;;;;;;8.84;100.00;99868.28;5055678;28;19979;-83
2023/01/02 11:52:29;;;;;;;;;;;;;;;8.85;100.00;99859.47;5055698;28;19917;-84
2023/01/02 11:55:06;;;;;;;;;;;;;;;8.82;100.00;99856.94;5054916;28;19968;-83
2023/01/02 11:57:48;;;;;;;;;;;;;;;8.83;100.00;99859.53;5055462;28;19921;-85
2023/01/02 12:00:14;;;;;;;;;;;;;;;8.84;100.00;99861.25;5055504;28;19917;-85
2023/01/02 12:02:42;;;;;;;;;;;;;;;8.87;100.00;99863.78;5055686;28;19917;-84
2023/01/02 12:05:11;;;;;;;;;;;;;;;8.86;100.00;99862.06;5037639;28;19921;-83
2023/01/02 12:07:44;;;;;;;;;;;;;;;8.88;100.00;99862.00;5054120;28;19917;-83
2023/01/02 12:10:19;;;;;;;;;;;;;;;8.89;100.00;99851.38;5055115;28;20292;-83
2023/01/02 12:13:03;;;;;;;;;;;;;;;8.90;100.00;99853.13;5055292;28;20006;-84
2023/01/02 12:15:37;;;;;;;;;;;;;;;8.94;100.00;99850.38;5055596;28;20007;-84
2023/01/02 12:18:21;;;;;;;;;;;;;;;8.94;100.00;99853.88;5055177;28;20011;-84
2023/01/02 12:21:04;;;;;;;;;;;;;;;8.95;100.00;99854.72;5055191;28;19996;-83
2023/01/02 12:23:32;;;;;;;;;;;;;;;8.92;100.00;99850.44;5054146;28;20322;-84
2023/01/02 12:26:06;;;;;;;;;;;;;;;8.99;100.00;99856.34;5053859;28;19917;-85
2023/01/02 12:28:43;;;;;;;;;;;;;;;8.97;100.00;99848.47;5055061;28;19927;-85
2023/01/02 12:31:11;;;;;;;;;;;;;;;8.99;100.00;99851.06;5037073;28;19956;-85
2023/01/02 12:33:36;;;;;;;;;;;;;;;9.00;100.00;99839.56;5055023;28;19916;-83
2023/01/02 12:36:08;;;;;;;;;;;;;;;9.00;100.00;99842.19;5054844;28;19970;-84
2023/01/02 12:38:40;;;;;;;;;;;;;;;9.04;100.00;99849.13;5053601;28;20287;-83
2023/01/02 12:41:12;;;;;;;;;;;;;;;9.05;100.00;99845.56;5054783;28;20071;-84
2023/01/02 12:44:02;;;;;;;;;;;;;;;9.04;100.00;99849.13;5054807;28;19931;-85
2023/01/02 12:46:39;;;;;;;;;;;;;;;9.04;100.00;99860.53;5054552;28;20016;-84
2023/01/02 12:49:04;;;;;;;;;;;;;;;9.08;100.00;99853.38;5054571;28;19992;-83
2023/01/02 12:51:31;;;;;;;;;;;;;;;9.02;100.00;99859.75;5053966;28;20133;-87
2023/01/02 12:53:56;;;;;;;;;;;;;;;9.07;100.00;99859.59;5053105;28;19942;-84
2023/01/02 12:56:32;;;;;;;;;;;;;;;9.03;100.00;99863.25;5054537;28;19916;-84
2023/01/02 12:59:03;;;;;;;;;;;;;;;9.06;100.00;99865.78;5054312;28;20363;-83
2023/01/02 13:01:33;;;;;;;;;;;;;;;9.09;100.00;99882.41;5054511;28;19921;-84
2023/01/02 13:04:05;;;;;;;;;;;;;;;9.11;100.00;99882.34;5054356;28;19955;-83
2023/01/02 13:06:42;;;;;;;;;;;;;;;8.37;100.00;99900.63;5054152;28;19964;-85
2023/01/02 13:09:24;;;;;;;;;;;;;;;7.92;100.00;99903.78;5052735;28;20384;-84
2023/01/02 13:11:52;;;;;;;;;;;;;;;7.71;100.00;99913.22;5054367;28;19923;-88
2023/01/02 13:14:20;;;;;;;;;;;;;;;7.67;100.00;99916.84;5054056;28;19917;-86
2023/01/02 13:16:49;;;;;;;;;;;;;;;7.54;100.00;99913.69;5054028;28;19916;-84
2023/01/02 13:19:19;;;;;;;;;;;;;;;7.51;100.00;99921.69;5054080;28;20260;-85
2023/01/02 13:21:50;;;;;;;;;;;;;;;7.54;100.00;99933.00;5036119;28;19967;-83
2023/01/02 13:24:21;;;;;;;;;;;;;;;7.40;100.00;99940.44;5052690;28;20371;-85
2023/01/02 13:26:47;;;;;;;;;;;;;;;7.33;100.00;99945.00;5053843;28;19917;-85
2023/01/02 13:29:12;;;;;;;;;;;;;;;7.30;100.00;99954.78;5053850;28;19970;-85
2023/01/02 13:31:39;;;;;;;;;;;;;;;7.32;100.00;99967.00;5053783;28;19913;-83
2023/01/02 13:34:31;;;;;;;;;;;;;;;7.24;100.00;99951.41;5053736;28;19960;-84
2023/01/02 13:36:58;;;;;;;;;;;;;;;7.22;100.00;99965.53;5049477;28;19936;-84
2023/01/02 13:39:26;;;;;;;;;;;;;;;7.18;100.00;99961.22;5052484;28;19956;-85
2023/01/02 13:44:41;;;;;;;;;;;;;;;7.13;100.00;99968.38;5053798;28;19938;-85
2023/01/02 13:47:18;;;;;;;;;;;;;;;7.05;100.00;99964.19;5053494;28;19921;-85
2023/01/02 13:49:46;;;;;;;;;;;;;;;6.98;100.00;99970.50;5035776;28;19917;-84
2023/01/02 13:52:19;;;;;;;;;;;;;;;7.00;100.00;99981.88;5053349;28;19931;-83
2023/01/02 13:55:03;;;;;;;;;;;;;;;6.96;100.00;99990.78;5052209;28;20330;-84
2023/01/02 13:57:30;;;;;;;;;;;;;;;6.90;100.00;99983.00;5053475;28;19924;-86
2023/01/02 14:00:00;;;;;;;;;;;;;;;6.91;100.00;100004.06;5053328;28;19959;-85
2023/01/02 14:02:25;;;;;;;;;;;;;;;6.87;100.00;100005.00;5053467;28;20319;-82
2023/01/02 14:04:50;;;;;;;;;;;;;;;6.90;100.00;100018.13;5053180;28;19920;-83
2023/01/02 14:07:24;;;;;;;;;;;;;;;6.84;100.00;100039.31;5053231;28;19975;-84
2023/01/02 14:10:22;;;;;;;;;;;;;;;6.85;100.00;100056.88;5051811;28;19975;-81
2023/01/02 14:12:49;;;;;;;;;;;;;;;6.84;100.00;100049.00;5008806;28;20287;-85
2023/01/02 14:15:16;;;;;;;;;;;;;;;6.84;100.00;100049.88;5053024;28;19917;-83
2023/01/02 14:17:41;;;;;;;;;;;;;;;6.82;100.00;100056.09;5053113;28;19921;-81
2023/01/02 14:20:15;;;;;;;;;;;;;;;6.81;100.00;100067.50;5053073;28;20047;-81
2023/01/02 14:22:48;;;;;;;;;;;;;;;6.73;100.00;100062.41;5051825;28;19924;-83
2023/01/02 14:25:14;;;;;;;;;;;;;;;6.69;100.00;100080.06;5053051;28;19916;-84
2023/01/02 14:27:47;;;;;;;;;;;;;;;6.68;100.00;100080.09;5053005;28;20051;-80
2023/01/02 14:30:13;;;;;;;;;;;;;;;6.65;100.00;100078.41;5052982;28;19921;-81
2023/01/02 14:32:40;;;;;;;;;;;;;;;6.66;100.00;100090.66;5053260;28;19917;-89
2023/01/02 14:35:14;;;;;;;;;;;;;;;6.63;100.00;100101.25;5052917;28;19921;-84
2023/01/02 14:37:44;;;;;;;;;;;;;;;6.58;100.00;100111.03;5051764;28;19917;-82
2023/01/02 14:40:18;;;;;;;;;;;;;;;6.58;100.00;100105.75;5052791;28;19917;-85
2023/01/02 14:45:30;;;;;;;;;;;;;;;6.55;100.00;100119.00;5053129;28;20275;-83
2023/01/02 14:48:05;;;;;;;;;;;;;;;6.56;100.00;100110.22;5035348;28;19924;-86
2023/01/02 14:50:33;;;;;;;;;;;;;;;6.49;100.00;100112.09;5056956;28;19917;-84
2023/01/02 14:53:11;;;;;;;;;;;;;;;6.47;100.00;100113.03;5055429;28;19952;-82
2023/01/02 14:55:38;;;;;;;;;;;;;;;6.48;100.00;100113.00;5038890;28;19917;-84
2023/01/02 14:58:04;;;;;;;;;;;;;;;6.44;100.00;100118.34;5038704;28;20372;-82
2023/01/02 15:00:33;;;;;;;;;;;;;;;6.41;100.00;100119.28;5056692;28;19916;-82
2023/01/02 15:03:13;;;;;;;;;;;;;;;6.41;100.00;100124.53;5038740;28;19917;-85
2023/01/02 15:05:46;;;;;;;;;;;;;;;6.40;100.00;100107.03;5056600;28;20322;-83
2023/01/02 15:08:13;;;;;;;;;;;;;;;6.41;100.00;100110.50;5055262;28;19943;-83
2023/01/02 15:10:55;;;;;;;;;;;;;;;6.32;100.00;100101.91;5056389;28;19924;-89
2023/01/02 15:13:30;;;;;;;;;;;;;;;6.38;100.00;100100.03;5039431;28;19956;-90
2023/01/02 15:15:58;;;;;;;;;;;;;;;6.34;100.00;100100.09;5056402;28;19917;-83
2023/01/02 15:18:27;;;;;;;;;;;;;;;6.34;100.00;100102.75;5061578;28;19922;-82
2023/01/02 15:20:53;;;;;;;;;;;;;;;6.34;100.00;100118.53;5069940;28;19967;-86
2023/01/02 15:23:20;;;;;;;;;;;;;;;6.23;100.00;100115.25;5057577;28;19956;-86
2023/01/02 15:25:45;;;;;;;;;;;;;;;6.23;100.00;100130.19;5044621;28;19940;-86
2023/01/02 15:28:31;;;;;;;;;;;;;;;6.20;100.00;100146.88;5068199;28;19920;-82
2023/01/02 15:31:00;;;;;;;;;;;;;;;6.24;100.00;100159.09;5067228;28;19917;-82
2023/01/02 15:33:30;;;;;;;;;;;;;;;6.19;100.00;100155.69;5058045;28;19956;-83
2023/01/02 15:35:57;;;;;;;;;;;;;;;6.16;100.00;100166.28;5076007;28;19919;-84
2023/01/02 15:38:23;;;;;;;;;;;;;;;6.15;100.00;100173.28;5064417;28;19921;-88
2023/01/02 15:40:48;;;;;;;;;;;;;;;6.15;100.00;100182.94;5038071;28;19962;-85
2023/01/02 15:45:58;;;;;;;;;;;;;;;6.13;100.00;100179.50;5055984;28;19983;-83
2023/01/02 15:48:26;;;;;;;;;;;;;;;6.16;100.00;100193.44;5067409;28;20363;-83
2023/01/02 15:50:52;;;;;;;;;;;;;;;6.11;100.00;100211.09;5074279;28;19959;-84
2023/01/02 15:53:33;;;;;;;;;;;;;;;6.05;100.00;100216.44;5054388;28;19916;-84
2023/01/02 15:55:58;;;;;;;;;;;;;;;6.04;100.00;100229.63;5055708;28;19916;-83
2023/01/02 15:58:26;;;;;;;;;;;;;;;6.04;100.00;100234.91;5055482;28;19971;-84
2023/01/02 16:01:11;;;;;;;;;;;;;;;5.97;100.00;100240.25;5057710;28;19972;-85
2023/01/02 16:03:37;;;;;;;;;;;;;;;6.00;100.00;100250.72;5064148;28;20280;-83
2023/01/02 16:06:06;;;;;;;;;;;;;;;6.01;100.00;100248.97;5055281;28;19917;-83
2023/01/02 16:08:32;;;;;;;;;;;;;;;6.00;100.00;100253.38;5064799;28;20011;-82
2023/01/02 16:11:00;;;;;;;;;;;;;;;5.96;100.00;100256.03;5057285;28;20016;-84
2023/01/02 16:16:19;;;;;;;;;;;;;;;5.96;100.00;100256.91;5058877;28;19948;-83
2023/01/02 16:18:47;;;;;;;;;;;;;;;5.97;100.00;100258.66;5059260;28;20363;-88
2023/01/02 16:21:13;;;;;;;;;;;;;;;5.97;100.00;100266.56;5053880;28;19916;-83
2023/01/02 16:23:39;;;;;;;;;;;;;;;5.97;100.00;100270.97;5053558;28;19956;-87
2023/01/02 16:26:05;;;;;;;;;;;;;;;5.99;100.00;100267.41;5054244;28;19940;-83
2023/01/02 16:28:34;;;;;;;;;;;;;;;5.94;100.00;100276.25;5054304;28;20407;-84
2023/01/02 16:31:07;;;;;;;;;;;;;;;5.97;100.00;100292.00;5054299;28;19962;-84
2023/01/02 16:33:33;;;;;;;;;;;;;;;5.97;100.00;100295.50;5054135;28;19920;-83
2023/01/02 16:36:04;;;;;;;;;;;;;;;5.89;100.00;100289.47;5054146;28;19925;-84
2023/01/02 16:38:30;;;;;;;;;;;;;;;5.89;100.00;100294.72;5053418;28;19957;-83
2023/01/02 16:41:11;;;;;;;;;;;;;;;5.92;100.00;100302.56;5054116;28;20015;-83
2023/01/02 16:43:37;;;;;;;;;;;;;;;5.93;100.00;100312.19;5059083;28;19928;-83
2023/01/02 16:46:02;;;;;;;;;;;;;;;5.90;100.00;100319.25;5062224;28;20010;-84
2023/01/02 16:48:28;;;;;;;;;;;;;;;5.90;100.00;100325.38;5073758;28;19966;-84
2023/01/02 16:50:55;;;;;;;;;;;;;;;5.88;100.00;100321.91;5070743;28;19966;-83
2023/01/02 16:53:25;;;;;;;;;;;;;;;5.85;100.00;100324.56;5052674;28;19924;-85
2023/01/02 16:55:50;;;;;;;;;;;;;;;5.82;100.00;100330.78;5053662;28;19917;-83
2023/01/02 16:58:16;;;;;;;;;;;;;;;5.85;100.00;100340.34;5053630;28;19923;-84
2023/01/02 17:00:44;;;;;;;;;;;;;;;5.81;100.00;100342.16;5035796;28;19920;-83
2023/01/02 17:03:13;;;;;;;;;;;;;;;5.78;100.00;100346.63;5053650;28;19920;-83
2023/01/02 17:05:40;;;;;;;;;;;;;;;5.74;100.00;100347.53;5053622;28;20429;-82
2023/01/02 17:08:05;;;;;;;;;;;;;;;5.74;100.00;100343.13;5052443;28;20041;-84
2023/01/02 17:10:31;;;;;;;;;;;;;;;5.78;100.00;100349.25;5052643;28;20446;-83
2023/01/02 17:12:57;;;;;;;;;;;;;;;5.70;100.00;100345.84;5053224;28;19923;-83
2023/01/02 17:15:22;;;;;;;;;;;;;;;5.72;100.00;100359.84;5053310;28;19917;-83
2023/01/02 17:17:47;;;;;;;;;;;;;;;5.70;100.00;100351.97;5053370;28;20020;-83
2023/01/02 17:20:13;;;;;;;;;;;;;;;5.69;100.00;100359.88;5035529;28;19924;-83
2023/01/02 17:22:39;;;;;;;;;;;;;;;5.68;100.00;100358.13;5039928;28;19943;-83
2023/01/02 17:25:06;;;;;;;;;;;;;;;5.67;100.00;100362.53;5071296;28;20383;-83
2023/01/02 17:27:32;;;;;;;;;;;;;;;5.68;100.00;100361.66;5055741;28;20015;-82
2023/01/02 17:29:57;;;;;;;;;;;;;;;5.69;100.00;100370.41;5056952;28;20405;-83
2023/01/02 17:32:22;;;;;;;;;;;;;;;5.69;100.00;100371.25;5072919;28;19917;-83
2023/01/02 17:34:48;;;;;;;;;;;;;;;5.67;100.00;100378.31;5055087;28;20050;-84
2023/01/02 17:37:14;;;;;;;;;;;;;;;5.69;100.00;100375.66;5072813;28;20302;-84
2023/01/02 17:39:39;;;;;;;;;;;;;;;5.66;100.00;100383.59;5053064;28;19940;-83
2023/01/02 17:42:04;;;;;;;;;;;;;;;5.69;100.00;100387.03;5052926;28;20390;-83
2023/01/02 17:44:29;;;;;;;;;;;;;;;5.63;100.00;100381.84;5057419;28;19982;-83
2023/01/02 17:46:54;;;;;;;;;;;;;;;5.61;100.00;100392.38;5055409;28;19920;-83
2023/01/02 17:49:20;;;;;;;;;;;;;;;5.66;100.00;100391.47;5052672;28;19963;-83
2023/01/02 17:51:45;;;;;;;;;;;;;;;5.59;100.00;100396.81;5052744;28;19917;-83
2023/01/02 17:54:10;;;;;;;;;;;;;;;5.57;100.00;100401.22;5033558;28;19920;-86
2023/01/02 17:56:36;;;;;;;;;;;;;;;5.56;100.00;100404.72;5052677;28;19920;-83
2023/01/02 17:59:02;;;;;;;;;;;;;;;5.54;100.00;100398.63;5052650;28;19927;-82
2023/01/02 18:01:27;;;;;;;;;;;;;;;5.56;100.00;100410.00;5052653;28;20335;-83
2023/01/02 18:03:53;;;;;;;;;;;;;;;5.56;100.00;100410.00;5052464;28;20007;-82
2023/01/02 18:06:18;;;;;;;;;;;;;;;5.58;100.00;100415.22;5052366;28;19962;-83
2023/01/02 18:08:43;;;;;;;;;;;;;;;5.59;100.00;100424.88;5051120;28;20017;-83
2023/01/02 18:11:10;;;;;;;;;;;;;;;5.59;100.00;100427.50;5034377;28;19928;-84
2023/01/02 18:13:45;;;;;;;;;;;;;;;5.58;100.00;100431.00;5034486;28;20368;-83
2023/01/02 18:16:16;;;;;;;;;;;;;;;5.57;100.00;100434.53;5052314;28;19924;-83
2023/01/02 18:18:44;;;;;;;;;;;;;;;5.55;100.00;100442.44;5055475;28;19972;-85
2023/01/02 18:21:13;;;;;;;;;;;;;;;5.56;100.00;100446.78;5069672;28;19923;-83
2023/01/02 18:23:40;;;;;;;;;;;;;;;5.56;100.00;100444.16;5057307;28;19924;-83
2023/01/02 18:26:13;;;;;;;;;;;;;;;5.54;100.00;100453.84;5062037;28;20284;-83
2023/01/02 18:28:40;;;;;;;;;;;;;;;5.58;100.00;100447.63;5056795;28;19932;-83
2023/01/02 18:31:12;;;;;;;;;;;;;;;5.56;100.00;100461.72;5034431;28;19923;-82
2023/01/02 18:33:37;;;;;;;;;;;;;;;5.54;100.00;100451.22;5057201;28;20011;-83
2023/01/02 18:36:05;;;;;;;;;;;;;;;5.52;100.00;100449.47;5067646;28;20359;-83
2023/01/02 18:38:38;;;;;;;;;;;;;;;5.51;100.00;100453.88;5065389;28;19970;-83
2023/01/02 18:41:21;;;;;;;;;;;;;;;5.52;100.00;100458.25;5072202;28;19916;-90
2023/01/02 18:43:48;;;;;;;;;;;;;;;5.53;100.00;100459.13;5071903;28;19916;-83
2023/01/02 18:46:18;;;;;;;;;;;;;;;5.45;100.00;100459.19;5052622;28;19927;-84
2023/01/02 18:48:43;;;;;;;;;;;;;;;5.51;100.00;100469.66;5051894;28;19916;-83
2023/01/02 18:51:18;;;;;;;;;;;;;;;5.45;100.00;100467.94;5062755;28;20071;-83
2023/01/02 18:53:55;;;;;;;;;;;;;;;5.51;100.00;100476.66;5056641;28;20379;-86
2023/01/02 18:56:29;;;;;;;;;;;;;;;5.70;100.00;100477.34;5055393;28;19917;-85
2023/01/02 18:59:13;;;;;;;;;;;;;;;5.69;100.00;100475.59;5053965;28;19916;-82
2023/01/02 19:01:45;;;;;;;;;;;;;;;5.69;100.00;100480.84;5059837;28;19920;-84
2023/01/02 19:04:16;;;;;;;;;;;;;;;5.66;100.00;100480.88;5055574;28;20003;-86
2023/01/02 19:06:44;;;;;;;;;;;;;;;5.63;100.00;100481.75;5051696;28;20427;-83
2023/01/02 19:09:14;;;;;;;;;;;;;;;5.55;100.00;100492.41;5050437;28;19927;-87
2023/01/02 19:14:42;;;;;;;;;;;;;;;5.62;100.00;100485.31;5052144;28;20119;-84
2023/01/02 19:17:23;;;;;;;;;;;;;;;5.53;100.00;100482.78;5051747;28;19917;-83
2023/01/02 19:19:49;;;;;;;;;;;;;;;5.58;100.00;100488.84;5033719;28;19963;-84
2023/01/02 19:22:15;;;;;;;;;;;;;;;5.67;100.00;100493.16;5054255;28;19962;-82
2023/01/02 19:24:51;;;;;;;;;;;;;;;;;;;;;
2023/01/02 19:27:28;;;;;;;;;;;;;;;5.58;100.00;100494.97;5051708;28;20372;-82
2023/01/02 19:29:59;;;;;;;;;;;;;;;5.62;100.00;100499.31;5051728;28;19917;-88
2023/01/02 19:32:28;;;;;;;;;;;;;;;5.59;100.00;100501.97;5051452;28;20382;-82
2023/01/02 19:34:56;;;;;;;;;;;;;;;5.61;100.00;100510.69;5053378;28;19917;-85
2023/01/02 19:37:23;;;;;;;;;;;;;;;5.53;100.00;100516.94;5055122;28;19931;-83
2023/01/02 19:39:53;;;;;;;;;;;;;;;5.55;100.00;100518.69;5064234;28;19932;-82
2023/01/02 19:42:21;;;;;;;;;;;;;;;5.52;100.00;100516.09;5060529;28;19917;-86
2023/01/02 19:44:54;;;;;;;;;;;;;;;5.55;100.00;100520.41;5066169;28;19923;-85
2023/01/02 19:47:21;;;;;;;;;;;;;;;5.58;100.00;100534.41;5075472;28;19916;-83
2023/01/02 19:49:46;;;;;;;;;;;;;;;5.57;100.00;100535.31;5064528;28;19917;-81
2023/01/02 19:52:27;;;;;;;;;;;;;;;5.52;100.00;100536.22;5054789;28;19921;-88
2023/01/02 19:55:00;;;;;;;;;;;;;;;5.48;100.00;100548.53;5054291;28;19916;-86
2023/01/02 19:57:27;;;;;;;;;;;;;;;5.46;100.00;100547.69;5060953;28;19920;-83
2023/01/02 19:59:54;;;;;;;;;;;;;;;5.50;100.00;100552.00;5056773;28;20384;-86
2023/01/02 20:02:27;;;;;;;;;;;;;;;5.43;100.00;100543.31;5056649;28;19917;-90
2023/01/02 20:04:54;;;;;;;;;;;;;;;5.51;100.00;100552.91;5074600;28;20014;-86
2023/01/02 20:07:23;;;;;;;;;;;;;;;5.48;100.00;100556.41;5074659;28;19923;-83
2023/01/02 20:09:51;;;;;;;;;;;;;;;5.44;100.00;100555.59;5073277;28;20066;-85
2023/01/02 20:12:29;;;;;;;;;;;;;;;5.43;100.00;100555.59;5074476;28;19957;-89
2023/01/02 20:14:56;;;;;;;;;;;;;;;5.45;100.00;100569.59;5075845;28;19916;-84
2023/01/02 20:17:21;;;;;;;;;;;;;;;5.44;100.00;100559.94;5074367;28;19931;-83
2023/01/02 20:19:47;;;;;;;;;;;;;;;5.48;100.00;100574.81;5056512;28;20313;-85
2023/01/02 20:22:12;;;;;;;;;;;;;;;5.44;100.00;100578.34;5074137;28;19952;-83
2023/01/02 20:24:37;;;;;;;;;;;;;;;5.43;100.00;100568.75;5072999;28;20006;-81
2023/01/02 20:27:03;;;;;;;;;;;;;;;5.43;100.00;100566.13;5056269;28;19939;-88
2023/01/02 20:29:29;;;;;;;;;;;;;;;5.39;100.00;100577.53;5073119;28;19972;-86
2023/01/02 20:31:54;;;;;;;;;;;;;;;5.42;100.00;100578.38;5063728;28;19920;-84
2023/01/02 20:34:20;;;;;;;;;;;;;;;5.41;100.00;100579.28;5054037;28;19916;-83
2023/01/02 20:36:56;;;;;;;;;;;;;;;5.40;100.00;100576.66;5053969;28;20433;-89
2023/01/02 20:39:24;;;;;;;;;;;;;;;5.37;100.00;100582.81;5053204;28;19972;-85
2023/01/02 20:41:52;;;;;;;;;;;;;;;5.38;100.00;100581.06;5053839;28;19923;-92
2023/01/02 20:44:17;;;;;;;;;;;;;;;5.36;100.00;100583.69;5036796;28;20352;-82
2023/01/02 20:46:43;;;;;;;;;;;;;;;5.37;100.00;100593.31;5052764;28;19962;-83
2023/01/02 20:49:09;;;;;;;;;;;;;;;5.35;100.00;100589.84;5053604;28;19920;-81
2023/01/02 20:51:34;;;;;;;;;;;;;;;5.32;100.00;100594.25;5053584;28;19917;-81
2023/01/02 20:54:00;;;;;;;;;;;;;;;5.32;100.00;100602.13;5052578;28;19917;-87
2023/01/02 20:56:25;;;;;;;;;;;;;;;5.34;100.00;100605.63;5053680;28;19972;-83
2023/01/02 20:58:56;;;;;;;;;;;;;;;5.37;100.00;100608.22;5054037;28;19928;-84
2023/01/02 21:01:22;;;;;;;;;;;;;;;5.33;100.00;100617.00;5043934;28;19920;-84
2023/01/02 21:03:47;;;;;;;;;;;;;;;5.33;100.00;100614.38;5073344;28;20326;-82
2023/01/02 21:06:13;;;;;;;;;;;;;;;5.34;100.00;100611.72;5073354;28;19969;-83
2023/01/02 21:08:38;;;;;;;;;;;;;;;5.31;100.00;100618.78;5072062;28;19961;-82
2023/01/02 21:11:04;;;;;;;;;;;;;;;5.24;100.00;100624.06;5064313;28;19920;-87
2023/01/02 21:13:29;;;;;;;;;;;;;;;5.26;100.00;100627.59;5053249;28;19916;-83
2023/01/02 21:15:56;;;;;;;;;;;;;;;5.25;100.00;100622.34;5053287;28;19917;-82
2023/01/02 21:18:22;;;;;;;;;;;;;;;5.23;100.00;100634.59;5053556;28;19967;-84
2023/01/02 21:20:48;;;;;;;;;;;;;;;5.23;100.00;100638.13;5035254;28;20112;-84
2023/01/02 21:23:14;;;;;;;;;;;;;;;5.23;100.00;100640.75;5052317;28;19916;-89
2023/01/02 21:25:39;;;;;;;;;;;;;;;5.27;100.00;100650.34;5053032;28;20352;-88
2023/01/02 21:28:06;;;;;;;;;;;;;;;5.22;100.00;100648.63;5035044;28;19917;-87
2023/01/02 21:30:32;;;;;;;;;;;;;;;5.23;100.00;100653.00;5035036;28;19917;-83
2023/01/02 21:32:57;;;;;;;;;;;;;;;5.25;100.00;100644.22;5052750;28;19916;-83
2023/01/02 21:35:22;;;;;;;;;;;;;;;5.23;100.00;100655.63;5052823;28;19965;-82
2023/01/02 21:37:48;;;;;;;;;;;;;;;5.26;100.00;100647.72;5051677;28;20557;-82
2023/01/02 21:40:13;;;;;;;;;;;;;;;5.25;100.00;100653.88;5052861;28;19963;-83
2023/01/02 21:42:38;;;;;;;;;;;;;;;5.23;100.00;100651.25;5052713;28;19985;-81
2023/01/02 21:45:04;;;;;;;;;;;;;;;5.23;100.00;100651.25;5052795;28;19924;-82
2023/01/02 21:47:29;;;;;;;;;;;;;;;5.22;100.00;100641.63;5052592;28;19939;-86
2023/01/02 21:49:54;;;;;;;;;;;;;;;5.18;100.00;100645.13;5052568;28;19917;-82
2023/01/02 21:52:19;;;;;;;;;;;;;;;5.20;100.00;100645.13;5052710;28;19917;-83
2023/01/02 21:54:45;;;;;;;;;;;;;;;5.20;100.00;100650.38;5052020;28;20376;-84
2023/01/02 21:57:10;;;;;;;;;;;;;;;5.21;100.00;100645.13;5052451;28;20284;-83
2023/01/02 21:59:35;;;;;;;;;;;;;;;5.22;100.00;100646.00;5052632;28;20326;-84
2023/01/02 22:02:03;;;;;;;;;;;;;;;5.20;100.00;100656.53;5052487;28;20541;-83
2023/01/02 22:04:28;;;;;;;;;;;;;;;5.20;100.00;100640.78;5052397;28;19921;-82
2023/01/02 22:06:54;;;;;;;;;;;;;;;5.20;100.00;100651.28;5053303;28;20103;-87
2023/01/02 22:09:19;;;;;;;;;;;;;;;5.21;100.00;100649.50;5060851;28;19921;-84
2023/01/02 22:11:54;;;;;;;;;;;;;;;5.21;100.00;100657.41;5061101;28;19975;-82
2023/01/02 22:14:20;;;;;;;;;;;;;;;5.17;100.00;100661.81;5043602;28;19973;-84
2023/01/02 22:16:45;;;;;;;;;;;;;;;5.19;100.00;100664.44;5056306;28;20364;-82